createdAt,value
2023-05-04T00:01:05.911Z,76.78
2023-05-04T00:03:35.456Z,76.50
2023-05-04T00:06:05.164Z,77.59
2023-05-04T00:08:35.020Z,76.84
2023-05-04T00:11:05.230Z,77.38
2023-05-04T00:13:34.734Z,77.67
2023-05-04T00:16:04.120Z,77.00
2023-05-04T00:18:33.461Z,77.60
2023-05-04T00:21:03.050Z,77.65
2023-05-04T00:23:32.327Z,77.93
2023-05-04T00:26:02.279Z,77.54
2023-05-04T00:28:31.584Z,78.18
2023-05-04T00:31:01.424Z,78.27
2023-05-04T00:33:30.735Z,78.59
2023-05-04T00:36:00.015Z,78.70
2023-05-04T00:38:29.303Z,78.62
2023-05-04T00:40:59.051Z,78.15
2023-05-04T00:43:28.670Z,77.91
2023-05-04T00:45:57.934Z,78.61
2023-05-04T00:48:27.720Z,78.46
2023-05-04T00:50:57.050Z,78.79
2023-05-04T00:53:27.115Z,78.28
2023-05-04T00:55:56.353Z,79.21
2023-05-04T00:58:26.408Z,79.52
2023-05-04T01:00:55.956Z,78.31
2023-05-04T01:03:27.018Z,78.62
2023-05-04T01:06:14.833Z,78.74
2023-05-04T01:08:49.865Z,78.84
2023-05-04T01:11:25.304Z,78.71
2023-05-04T01:13:55.413Z,79.68
2023-05-04T01:16:24.757Z,79.11
2023-05-04T01:18:54.240Z,79.15
2023-05-04T01:21:23.484Z,78.96
2023-05-04T01:23:53.124Z,78.90
2023-05-04T01:26:31.035Z,78.63
2023-05-04T01:29:07.507Z,78.45
2023-05-04T01:31:38.238Z,78.96
2023-05-04T01:34:09.018Z,78.68
2023-05-04T01:36:39.582Z,78.54
2023-05-04T01:39:10.670Z,78.86
2023-05-04T01:41:41.600Z,78.33
2023-05-04T01:44:11.075Z,78.13
2023-05-04T01:46:40.378Z,78.92
2023-05-04T01:49:09.806Z,79.56
2023-05-04T01:51:39.162Z,79.51
2023-05-04T01:54:08.613Z,80.19
2023-05-04T01:56:39.432Z,79.41
2023-05-04T01:59:08.693Z,80.03
2023-05-04T02:01:37.982Z,79.62
2023-05-04T02:04:07.616Z,80.69
2023-05-04T02:06:38.859Z,79.71
2023-05-04T02:09:08.203Z,80.21
2023-05-04T02:11:37.584Z,80.18
2023-05-04T02:14:06.925Z,80.77
2023-05-04T02:16:36.317Z,80.46
2023-05-04T02:19:06.284Z,81.03
2023-05-04T02:21:37.025Z,81.39
2023-05-04T02:24:07.679Z,81.39
2023-05-04T02:26:37.357Z,80.72
2023-05-04T02:29:06.710Z,81.47
2023-05-04T02:31:36.111Z,81.81
2023-05-04T02:34:05.551Z,82.24
2023-05-04T02:36:34.915Z,81.89
2023-05-04T02:39:04.354Z,81.55
2023-05-04T02:41:34.256Z,81.85
2023-05-04T02:44:03.509Z,82.64
2023-05-04T02:46:33.849Z,82.52
2023-05-04T02:49:03.098Z,82.28
2023-05-04T02:51:32.640Z,82.94
2023-05-04T02:54:02.078Z,82.69
2023-05-04T02:56:31.680Z,82.92
2023-05-04T02:59:01.208Z,82.95
2023-05-04T03:01:32.744Z,83.96
2023-05-04T03:04:01.672Z,83.99
2023-05-04T03:06:31.305Z,84.49
2023-05-04T03:09:01.252Z,83.75
2023-05-04T03:11:31.721Z,84.23
2023-05-04T03:14:01.019Z,84.53
2023-05-04T03:16:30.425Z,84.45
2023-05-04T03:18:59.835Z,84.67
2023-05-04T03:21:29.901Z,84.28
2023-05-04T03:23:59.904Z,84.21
2023-05-04T03:26:29.642Z,84.91
2023-05-04T03:28:59.696Z,85.41
2023-05-04T03:31:29.774Z,85.56
2023-05-04T03:33:59.317Z,84.87
2023-05-04T03:36:28.994Z,85.02
2023-05-04T03:38:58.394Z,85.33
2023-05-04T03:41:27.993Z,85.50
2023-05-04T03:43:57.253Z,85.08
2023-05-04T03:46:26.558Z,85.70
2023-05-04T03:48:55.889Z,86.04
2023-05-04T03:51:25.376Z,86.12
2023-05-04T03:53:54.654Z,86.05
2023-05-04T03:56:23.943Z,85.84
2023-05-04T03:58:53.221Z,85.98
2023-05-04T04:01:24.286Z,86.04
2023-05-04T04:03:53.912Z,85.91
2023-05-04T04:06:23.933Z,86.77
2023-05-04T04:08:54.097Z,86.74
2023-05-04T04:11:23.366Z,87.23
2023-05-04T04:13:53.223Z,87.43
2023-05-04T04:16:22.574Z,88.13
2023-05-04T04:18:52.418Z,88.00
2023-05-04T04:21:21.820Z,88.28
2023-05-04T04:23:51.213Z,88.33
2023-05-04T04:26:21.587Z,88.34
2023-05-04T04:28:51.004Z,88.35
2023-05-04T04:31:20.832Z,87.96
2023-05-04T04:33:53.150Z,88.28
2023-05-04T04:36:22.418Z,88.70
2023-05-04T04:38:52.440Z,87.81
2023-05-04T04:41:21.813Z,88.39
2023-05-04T04:43:51.147Z,87.89
2023-05-04T04:46:20.401Z,88.01
2023-05-04T04:48:50.220Z,87.88
2023-05-04T04:51:19.473Z,87.89
2023-05-04T04:53:49.132Z,87.95
2023-05-04T04:56:21.624Z,87.07
2023-05-04T04:58:51.835Z,86.98
2023-05-04T05:01:21.151Z,87.76
2023-05-04T05:03:50.588Z,86.82
2023-05-04T05:06:20.854Z,86.98
2023-05-04T05:08:50.157Z,86.56
2023-05-04T05:11:19.417Z,86.23
2023-05-04T05:13:49.138Z,86.50
2023-05-04T05:16:18.397Z,86.59
2023-05-04T05:18:47.991Z,86.07
2023-05-04T05:21:17.271Z,86.17
2023-05-04T05:23:47.074Z,86.11
2023-05-04T05:26:16.954Z,84.81
2023-05-04T05:28:46.361Z,84.20
2023-05-04T05:31:15.671Z,84.29
2023-05-04T05:33:45.077Z,84.13
2023-05-04T05:36:14.972Z,84.26
2023-05-04T05:38:44.587Z,83.61
2023-05-04T05:41:15.345Z,83.27
2023-05-04T05:43:44.911Z,82.60
2023-05-04T05:46:15.246Z,82.10
2023-05-04T05:48:44.797Z,82.58
2023-05-04T05:51:14.376Z,82.58
2023-05-04T05:53:45.127Z,83.34
2023-05-04T05:56:15.013Z,83.62
2023-05-04T05:58:44.356Z,83.83
2023-05-04T06:01:14.181Z,83.81
2023-05-04T06:03:43.840Z,83.15
2023-05-04T06:06:13.172Z,83.18
2023-05-04T06:08:43.085Z,83.25
2023-05-04T06:11:12.335Z,82.51
2023-05-04T06:13:41.951Z,81.83
2023-05-04T06:16:11.289Z,81.10
2023-05-04T06:18:40.971Z,80.70
2023-05-04T06:21:10.265Z,82.04
2023-05-04T06:23:39.914Z,81.41
2023-05-04T06:26:09.263Z,81.53
2023-05-04T06:28:38.891Z,80.88
2023-05-04T06:31:08.630Z,81.38
2023-05-04T06:33:39.226Z,80.50
2023-05-04T06:36:08.632Z,79.58
2023-05-04T06:38:39.140Z,78.38
2023-05-04T06:41:08.855Z,78.40
2023-05-04T06:43:42.113Z,78.74
2023-05-04T06:46:11.414Z,78.69
2023-05-04T06:48:41.597Z,77.91
2023-05-04T06:51:10.915Z,76.78
2023-05-04T06:53:40.316Z,76.31
2023-05-04T06:56:09.889Z,76.07
2023-05-04T06:58:39.635Z,75.64
2023-05-04T07:01:12.349Z,76.85
2023-05-04T07:03:41.675Z,76.37
2023-05-04T07:06:11.412Z,74.24
2023-05-04T07:08:40.893Z,75.36
2023-05-04T07:11:11.785Z,75.25
2023-05-04T07:13:41.160Z,73.60
2023-05-04T07:16:10.479Z,73.46
2023-05-04T07:18:40.416Z,73.01
2023-05-04T07:21:27.061Z,71.98
2023-05-04T07:23:44.177Z,71.30
2023-05-04T07:26:13.532Z,71.33
2023-05-04T07:28:44.040Z,71.92
2023-05-04T07:31:14.364Z,71.22
2023-05-04T07:33:43.747Z,71.32
2023-05-04T07:36:13.025Z,71.14
2023-05-04T07:38:42.301Z,69.17
2023-05-04T07:41:11.694Z,70.65
2023-05-04T07:43:41.241Z,69.18
2023-05-04T07:46:10.566Z,69.22
2023-05-04T07:48:39.870Z,69.52
2023-05-04T07:51:14.395Z,68.12
2023-05-04T07:53:43.959Z,67.22
2023-05-04T07:56:14.315Z,66.98
2023-05-04T07:58:43.554Z,68.43
2023-05-04T08:01:13.136Z,66.82
2023-05-04T08:03:42.729Z,67.24
2023-05-04T08:06:12.062Z,66.26
2023-05-04T08:08:42.056Z,66.72
2023-05-04T08:11:20.635Z,65.16
2023-05-04T08:13:50.612Z,64.67
2023-05-04T08:16:20.020Z,62.82
2023-05-04T08:18:49.589Z,64.14
2023-05-04T08:21:19.661Z,64.33
2023-05-04T08:23:49.757Z,62.43
2023-05-04T08:26:20.333Z,63.32
2023-05-04T08:28:49.877Z,61.66
2023-05-04T08:31:19.582Z,60.43
2023-05-04T08:33:48.924Z,61.03
2023-05-04T08:36:18.159Z,59.79
2023-05-04T08:38:47.951Z,60.89
2023-05-04T08:41:17.347Z,61.66
2023-05-04T08:43:48.829Z,59.32
2023-05-04T08:46:18.597Z,60.75
2023-05-04T08:48:48.154Z,61.28
2023-05-04T08:51:17.792Z,59.92
2023-05-04T08:53:47.569Z,60.84
2023-05-04T08:56:18.040Z,59.75
2023-05-04T08:58:52.708Z,60.27
2023-05-04T09:01:23.055Z,59.25
2023-05-04T09:03:53.078Z,60.53
2023-05-04T09:06:23.064Z,58.71
2023-05-04T09:08:52.328Z,58.24
2023-05-04T09:11:22.170Z,58.81
2023-05-04T09:13:51.567Z,57.73
2023-05-04T09:16:22.089Z,58.54
2023-05-04T09:18:51.802Z,57.20
2023-05-04T09:21:24.518Z,57.01
2023-05-04T09:23:53.942Z,57.91
2023-05-04T09:26:33.487Z,57.10
2023-05-04T09:29:15.843Z,55.58
2023-05-04T09:31:52.590Z,54.77
2023-05-04T09:34:22.334Z,54.76
2023-05-04T09:37:02.695Z,54.92
2023-05-04T09:39:32.276Z,52.95
2023-05-04T09:42:01.999Z,52.43
2023-05-04T09:44:33.037Z,51.60
2023-05-04T09:47:02.625Z,50.73
2023-05-04T09:49:39.092Z,46.79
2023-05-04T09:52:08.439Z,44.42
2023-05-04T09:54:39.352Z,44.15
2023-05-04T09:57:15.510Z,41.80
2023-05-04T09:59:45.565Z,42.75
2023-05-04T10:02:22.805Z,39.76
2023-05-04T10:04:46.865Z,40.35
2023-05-04T10:07:16.479Z,41.36
2023-05-04T10:09:46.025Z,38.75
2023-05-04T10:12:15.664Z,37.23
2023-05-04T10:14:47.240Z,37.55
2023-05-04T10:17:34.688Z,38.52
2023-05-04T10:20:37.500Z,37.61
2023-05-04T10:23:09.908Z,38.38
2023-05-04T10:26:15.812Z,38.11
2023-05-04T10:28:48.510Z,38.42
2023-05-04T10:31:18.430Z,37.93
2023-05-04T10:33:47.682Z,36.68
2023-05-04T10:36:17.467Z,37.53
2023-05-04T10:38:47.262Z,38.32
2023-05-04T10:41:17.835Z,37.87
2023-05-04T10:43:49.295Z,36.35
2023-05-04T10:46:26.885Z,38.17
2023-05-04T10:48:56.233Z,36.70
2023-05-04T10:51:35.633Z,36.13
2023-05-04T10:53:59.878Z,34.53
2023-05-04T10:56:29.840Z,34.74
2023-05-04T10:59:02.307Z,34.47
2023-05-04T11:01:32.076Z,37.43
2023-05-04T11:04:01.697Z,36.59
2023-05-04T11:06:31.021Z,35.51
2023-05-04T11:09:01.903Z,35.09
2023-05-04T11:11:31.701Z,36.10
2023-05-04T11:14:01.656Z,36.61
2023-05-04T11:16:31.548Z,35.33
2023-05-04T11:19:13.119Z,34.99
2023-05-04T11:21:42.449Z,34.92
2023-05-04T11:24:11.798Z,34.02
2023-05-04T11:26:49.436Z,34.92
2023-05-04T11:29:19.329Z,34.98
2023-05-04T11:31:58.033Z,32.84
2023-05-04T11:34:27.799Z,33.78
2023-05-04T11:36:57.760Z,34.65
2023-05-04T11:39:27.223Z,33.86
2023-05-04T11:41:57.131Z,34.28
2023-05-04T11:44:26.465Z,35.97
2023-05-04T11:46:56.712Z,36.48
2023-05-04T11:49:27.641Z,37.59
2023-05-04T11:52:08.009Z,36.97
2023-05-04T11:54:37.331Z,35.56
2023-05-04T11:57:06.589Z,34.76
2023-05-04T11:59:36.055Z,35.47
2023-05-04T12:02:05.527Z,34.97
2023-05-04T12:04:34.796Z,34.34
2023-05-04T12:07:08.810Z,34.88
2023-05-04T12:09:48.359Z,34.20
2023-05-04T12:12:20.270Z,30.67
2023-05-04T12:14:49.267Z,32.33
2023-05-04T12:17:20.364Z,32.69
2023-05-04T12:19:52.631Z,32.00
2023-05-04T12:22:33.398Z,31.52
2023-05-04T12:25:03.042Z,29.74
2023-05-04T12:27:33.462Z,29.79
2023-05-04T12:30:03.023Z,31.73
2023-05-04T12:32:32.349Z,30.60
2023-05-04T12:35:01.689Z,31.58
2023-05-04T12:37:31.585Z,30.29
2023-05-04T12:40:01.444Z,31.40
2023-05-04T12:42:31.905Z,30.59
2023-05-04T12:45:01.206Z,29.10
2023-05-04T12:47:30.674Z,30.89
2023-05-04T12:50:02.175Z,31.79
2023-05-04T12:52:31.505Z,31.11
2023-05-04T12:55:01.233Z,29.24
2023-05-04T12:57:30.510Z,31.94
2023-05-04T13:00:00.764Z,32.01
2023-05-04T13:02:30.239Z,34.30
2023-05-04T13:04:59.648Z,32.58
2023-05-04T13:07:28.915Z,31.69
2023-05-04T13:09:58.607Z,33.07
2023-05-04T13:12:27.976Z,32.93
2023-05-04T13:14:58.126Z,31.28
2023-05-04T13:17:29.699Z,32.91
2023-05-04T13:19:58.996Z,32.46
2023-05-04T13:22:30.212Z,33.32
2023-05-04T13:24:59.831Z,32.71
2023-05-04T13:27:29.454Z,31.94
2023-05-04T13:30:00.398Z,30.77
2023-05-04T13:32:30.220Z,31.52
2023-05-04T13:34:59.746Z,30.83
2023-05-04T13:37:29.693Z,32.96
2023-05-04T13:40:00.602Z,32.46
2023-05-04T13:42:30.135Z,32.82
2023-05-04T13:44:59.479Z,31.90
2023-05-04T13:47:29.156Z,31.64
2023-05-04T13:49:58.480Z,33.01
2023-05-04T13:52:28.653Z,31.98
2023-05-04T13:54:57.914Z,32.66
2023-05-04T13:57:27.876Z,34.35
2023-05-04T14:00:07.044Z,31.84
2023-05-04T14:02:28.779Z,32.75
2023-05-04T14:04:58.011Z,32.43
2023-05-04T14:07:27.283Z,33.80
2023-05-04T14:09:57.310Z,33.19
2023-05-04T14:12:27.467Z,32.19
2023-05-04T14:14:57.672Z,33.12
2023-05-04T14:17:27.229Z,32.93
2023-05-04T14:19:58.222Z,34.81
2023-05-04T14:22:28.770Z,32.96
2023-05-04T14:24:58.963Z,32.90
2023-05-04T14:27:29.960Z,32.90
2023-05-04T14:29:59.734Z,32.90
2023-05-04T14:32:29.212Z,33.21
2023-05-04T14:35:07.053Z,31.26
2023-05-04T14:37:38.107Z,32.11
2023-05-04T14:40:10.395Z,32.12
2023-05-04T14:42:40.350Z,33.49
2023-05-04T14:45:11.467Z,32.97
2023-05-04T14:47:42.248Z,32.03
2023-05-04T14:50:13.071Z,32.81
2023-05-04T14:52:42.345Z,33.30
2023-05-04T14:55:12.185Z,33.42
2023-05-04T14:57:42.926Z,33.55
2023-05-04T15:00:13.390Z,31.86
2023-05-04T15:02:42.950Z,32.52
2023-05-04T15:05:12.735Z,32.35
2023-05-04T15:07:42.083Z,31.42
2023-05-04T15:10:12.170Z,33.34
2023-05-04T15:12:41.908Z,34.09
2023-05-04T15:15:11.964Z,34.23
2023-05-04T15:17:41.299Z,36.51
2023-05-04T15:20:11.435Z,34.87
2023-05-04T15:22:40.904Z,36.14
2023-05-04T15:25:10.767Z,36.58
2023-05-04T15:27:40.890Z,35.07
2023-05-04T15:30:11.600Z,36.65
2023-05-04T15:32:40.877Z,36.19
2023-05-04T15:35:10.427Z,38.40
2023-05-04T15:37:39.676Z,37.21
2023-05-04T15:40:10.596Z,37.21
2023-05-04T15:42:40.055Z,37.71
2023-05-04T15:45:10.808Z,36.93
2023-05-04T15:47:40.177Z,36.78
2023-05-04T15:50:09.996Z,37.10
2023-05-04T15:52:39.902Z,36.60
2023-05-04T15:55:24.564Z,36.79
2023-05-04T15:57:41.568Z,35.81
2023-05-04T16:00:11.739Z,34.61
2023-05-04T16:02:41.121Z,34.04
2023-05-04T16:05:10.805Z,33.99
2023-05-04T16:07:40.046Z,32.63
2023-05-04T16:10:10.909Z,31.86
2023-05-04T16:12:41.296Z,33.02
2023-05-04T16:15:11.676Z,33.20
2023-05-04T16:17:41.138Z,33.53
2023-05-04T16:20:11.816Z,32.89
2023-05-04T16:22:41.046Z,34.76
2023-05-04T16:25:11.556Z,34.26
2023-05-04T16:27:41.211Z,34.59
2023-05-04T16:30:11.283Z,34.06
2023-05-04T16:32:40.567Z,33.74
2023-05-04T16:35:10.527Z,32.98
2023-05-04T16:37:40.553Z,33.06
2023-05-04T16:40:14.347Z,31.61
2023-05-04T16:42:44.132Z,32.11
2023-05-04T16:45:14.581Z,31.08
2023-05-04T16:47:44.640Z,31.90
2023-05-04T16:50:15.163Z,31.51
2023-05-04T16:52:45.274Z,30.96
2023-05-04T16:55:14.706Z,30.89
2023-05-04T16:57:44.273Z,30.64
2023-05-04T17:00:14.856Z,30.79
2023-05-04T17:02:44.597Z,30.85
2023-05-04T17:05:13.907Z,31.39
2023-05-04T17:07:44.440Z,30.96
2023-05-04T17:10:14.850Z,31.67
2023-05-04T17:12:44.239Z,32.30
2023-05-04T17:15:13.797Z,33.00
2023-05-04T17:17:43.373Z,33.94
2023-05-04T17:20:16.680Z,34.07
2023-05-04T17:22:46.543Z,35.18
2023-05-04T17:25:15.854Z,36.68
2023-05-04T17:27:45.287Z,37.06
2023-05-04T17:30:14.970Z,37.29
2023-05-04T17:32:44.637Z,38.48
2023-05-04T17:35:24.022Z,37.81
2023-05-04T17:37:45.675Z,37.42
2023-05-04T17:40:15.216Z,38.68
2023-05-04T17:42:45.032Z,38.18
2023-05-04T17:45:14.450Z,38.05
2023-05-04T17:47:45.262Z,38.93
2023-05-04T17:50:14.585Z,39.98
2023-05-04T17:52:43.896Z,38.69
2023-05-04T17:55:13.156Z,40.42
2023-05-04T17:57:42.817Z,40.48
2023-05-04T18:00:13.120Z,41.68
2023-05-04T18:02:42.697Z,41.50
2023-05-04T18:05:12.917Z,41.14
2023-05-04T18:07:42.572Z,41.81
2023-05-04T18:10:12.561Z,40.80
2023-05-04T18:12:42.357Z,41.85
2023-05-04T18:15:12.262Z,42.31
2023-05-04T18:17:41.845Z,42.11
2023-05-04T18:20:13.258Z,42.92
2023-05-04T18:22:42.580Z,42.46
2023-05-04T18:25:12.253Z,42.01
2023-05-04T18:27:41.833Z,43.24
2023-05-04T18:32:39.987Z,45.15
2023-05-04T18:35:10.340Z,45.15
2023-05-04T18:37:41.117Z,43.54
2023-05-04T18:40:11.506Z,44.10
2023-05-04T18:42:41.143Z,44.27
2023-05-04T18:45:11.769Z,42.89
2023-05-04T18:47:41.043Z,43.98
2023-05-04T18:50:13.089Z,44.10
2023-05-04T18:52:42.575Z,45.11
2023-05-04T18:55:12.265Z,45.25
2023-05-04T18:57:42.172Z,45.89
2023-05-04T19:00:13.882Z,47.04
2023-05-04T19:02:43.721Z,47.41
2023-05-04T19:05:14.599Z,47.89
2023-05-04T19:07:44.397Z,47.20
2023-05-04T19:10:14.458Z,48.41
2023-05-04T19:12:44.420Z,47.48
2023-05-04T19:15:16.242Z,49.34
2023-05-04T19:17:45.555Z,49.12
2023-05-04T19:20:15.764Z,48.65
2023-05-04T19:22:46.592Z,50.38
2023-05-04T19:25:33.289Z,50.72
2023-05-04T19:27:49.093Z,49.71
2023-05-04T19:30:18.500Z,50.94
2023-05-04T19:32:48.014Z,50.23
2023-05-04T19:35:18.468Z,49.88
2023-05-04T19:37:48.030Z,50.27
2023-05-04T19:40:19.486Z,50.74
2023-05-04T19:42:48.969Z,50.56
2023-05-04T19:45:18.374Z,50.95
2023-05-04T19:47:48.452Z,53.05
2023-05-04T19:50:17.956Z,53.71
2023-05-04T19:52:47.692Z,52.11
2023-05-04T19:55:17.427Z,52.40
2023-05-04T19:57:48.609Z,51.76
2023-05-04T20:00:19.406Z,51.45
2023-05-04T20:02:49.584Z,51.58
2023-05-04T20:05:19.085Z,51.19
2023-05-04T20:07:48.919Z,50.81
2023-05-04T20:10:18.232Z,50.67
2023-05-04T20:12:47.900Z,51.08
2023-05-04T20:15:17.239Z,52.74
2023-05-04T20:17:46.565Z,52.39
2023-05-04T20:20:17.636Z,52.63
2023-05-04T20:22:49.209Z,52.02
2023-05-04T20:25:20.156Z,52.11
2023-05-04T20:27:51.359Z,52.39
2023-05-04T20:30:21.290Z,53.23
2023-05-04T20:32:50.615Z,55.20
2023-05-04T20:35:20.353Z,54.55
2023-05-04T20:37:49.957Z,54.65
2023-05-04T20:40:19.754Z,55.03
2023-05-04T20:42:49.685Z,56.99
2023-05-04T20:45:19.300Z,57.45
2023-05-04T20:47:49.441Z,58.31
2023-05-04T20:50:20.397Z,59.02
2023-05-04T20:52:50.224Z,59.38
2023-05-04T20:55:22.724Z,60.41
2023-05-04T20:57:52.166Z,60.92
2023-05-04T21:00:22.004Z,62.66
2023-05-04T21:02:51.379Z,62.55
2023-05-04T21:05:20.850Z,62.28
2023-05-04T21:07:51.763Z,62.56
2023-05-04T21:10:22.220Z,63.25
2023-05-04T21:12:55.126Z,62.43
2023-05-04T21:15:26.638Z,62.95
2023-05-04T21:17:55.901Z,61.91
2023-05-04T21:20:26.173Z,61.08
2023-05-04T21:22:55.464Z,60.46
2023-05-04T21:25:25.350Z,62.66
2023-05-04T21:27:54.660Z,63.30
2023-05-04T21:30:24.071Z,64.69
2023-05-04T21:32:53.432Z,61.82
2023-05-04T21:35:23.278Z,60.67
2023-05-04T21:37:52.720Z,62.57
2023-05-04T21:40:22.138Z,66.48
2023-05-04T21:42:52.106Z,66.25
2023-05-04T21:45:21.455Z,64.70
2023-05-04T21:47:51.080Z,66.22
2023-05-04T21:50:20.383Z,64.15
2023-05-04T21:52:49.717Z,65.40
2023-05-04T21:55:19.763Z,66.35
2023-05-04T21:57:49.390Z,65.74
2023-05-04T22:00:19.309Z,62.30
2023-05-04T22:02:48.758Z,66.95
2023-05-04T22:05:19.732Z,64.66
2023-05-04T22:07:49.401Z,64.23
2023-05-04T22:10:19.297Z,64.31
2023-05-04T22:12:48.718Z,66.87
2023-05-04T22:15:18.506Z,68.30
2023-05-04T22:17:48.611Z,64.27
2023-05-04T22:20:18.627Z,63.13
2023-05-04T22:22:47.912Z,64.19
2023-05-04T22:25:19.833Z,64.95
2023-05-04T22:27:49.118Z,61.96
2023-05-04T22:30:18.537Z,61.62
2023-05-04T22:32:47.888Z,63.86
2023-05-04T22:35:17.613Z,60.57
2023-05-04T22:37:48.945Z,59.25
2023-05-04T22:40:18.506Z,58.79
2023-05-04T22:42:47.762Z,57.89
2023-05-04T22:45:19.443Z,58.07
2023-05-04T22:47:48.902Z,59.02
2023-05-04T22:50:18.606Z,59.90
2023-05-04T22:52:47.862Z,61.07
2023-05-04T22:55:17.149Z,62.62
2023-05-04T22:57:46.672Z,63.73
2023-05-04T23:00:16.824Z,64.69
2023-05-04T23:02:46.137Z,65.75
2023-05-04T23:05:16.024Z,66.12
2023-05-04T23:07:45.629Z,66.47
2023-05-04T23:10:14.973Z,67.16
2023-05-04T23:12:44.428Z,68.09
2023-05-04T23:15:14.420Z,68.76
2023-05-04T23:17:43.788Z,69.70
2023-05-04T23:20:13.772Z,70.04
2023-05-04T23:22:43.532Z,70.31
2023-05-04T23:25:13.112Z,70.51
2023-05-04T23:27:42.615Z,70.36
2023-05-04T23:30:12.385Z,70.55
2023-05-04T23:32:41.912Z,70.79
2023-05-04T23:35:11.549Z,71.50
2023-05-04T23:37:41.218Z,72.40
2023-05-04T23:40:11.159Z,73.24
2023-05-04T23:42:40.453Z,74.19
2023-05-04T23:45:10.606Z,75.18
2023-05-04T23:47:40.173Z,75.57
2023-05-04T23:50:10.793Z,76.02
2023-05-04T23:52:40.495Z,76.16
2023-05-04T23:55:10.529Z,75.10
2023-05-04T23:57:40.079Z,75.27
